Time;durP1;ratioP1;P1;durP2;ratioP2;P2;SDS_P1;SDS_P2;PMS_P1;PMS_P2;Temp;Humidity;BMP_temperature;BMP_pressure;BME280_temperature;BME280_humidity;BME280_pressure;Samples;Min_cycle;Max_cycle;Signal;HPM_P1;HPM_P2
2021/06/29 00:02:06;;;;;;;4.77;4.17;;;;;;;20.31;74.42;100457.84;5073140;28;20222;-83
2021/06/29 00:04:32;;;;;;;5.47;4.43;;;;;;;20.32;74.48;100454.13;5073471;28;20661;-83
2021/06/29 00:06:59;;;;;;;6.43;4.57;;;;;;;20.35;74.48;100461.06;5066277;28;20199;-83
2021/06/29 00:09:25;;;;;;;9.13;4.80;;;;;;;20.34;74.08;100456.69;5065903;28;20676;-83
2021/06/29 00:11:52;;;;;;;5.33;4.60;;;;;;;20.33;74.23;100460.38;5072512;28;20211;-82
2021/06/29 00:14:19;;;;;;;8.30;4.27;;;;;;;20.34;74.18;100465.63;5070131;28;20211;-82
2021/06/29 00:16:47;;;;;;;7.10;4.70;;;;;;;20.33;74.30;100463.94;5077587;28;20207;-83
2021/06/29 00:19:13;;;;;;;6.87;4.73;;;;;;;20.32;74.27;100466.81;5073281;28;20224;-82
2021/06/29 00:21:40;;;;;;;8.53;5.13;;;;;;;20.30;74.44;100460.72;5069121;28;20210;-83
2021/06/29 00:24:07;;;;;;;8.93;5.43;;;;;;;20.29;74.05;100461.72;5074407;28;20208;-83
2021/06/29 00:26:34;;;;;;;10.93;5.10;;;;;;;20.30;74.61;100460.72;5068688;28;20291;-83
2021/06/29 00:29:00;;;;;;;10.47;4.90;;;;;;;20.32;74.43;100462.25;5073007;28;20220;-83
2021/06/29 00:31:27;;;;;;;6.50;5.10;;;;;;;20.33;74.35;100458.53;5070728;28;20219;-83
2021/06/29 00:33:55;;;;;;;10.50;5.43;;;;;;;20.35;74.26;100463.78;5073650;28;20209;-84
2021/06/29 00:36:21;;;;;;;14.27;5.30;;;;;;;20.36;74.14;100462.78;5076758;28;20289;-83
2021/06/29 00:38:48;;;;;;;7.40;5.30;;;;;;;20.39;74.11;100474.16;5080803;28;20314;-84
2021/06/29 00:41:15;;;;;;;7.17;5.47;;;;;;;20.42;73.99;100475.69;5068880;28;20200;-84
2021/06/29 00:43:46;;;;;;;12.67;5.27;;;;;;;20.42;74.06;100478.38;5071699;28;20207;-84
2021/06/29 00:46:12;;;;;;;8.17;5.10;;;;;;;20.41;73.85;100482.94;5073969;28;20249;-85
2021/06/29 00:48:39;;;;;;;8.27;4.63;;;;;;;20.38;73.96;100479.72;5070107;28;20219;-85
2021/06/29 00:51:07;;;;;;;6.83;4.33;;;;;;;20.35;74.16;100480.84;5082554;28;20583;-84
2021/06/29 00:53:34;;;;;;;6.50;4.57;;;;;;;20.33;74.40;100482.03;5072644;28;20284;-84
2021/06/29 00:56:01;;;;;;;5.43;4.57;;;;;;;20.32;74.51;100483.03;5082206;28;20679;-84
2021/06/29 00:58:27;;;;;;;4.30;3.87;;;;;;;20.32;74.64;100481.19;5069961;28;20595;-84
2021/06/29 01:00:54;;;;;;;7.57;4.37;;;;;;;20.33;74.50;100480.16;5082031;28;20223;-84
2021/06/29 01:03:20;;;;;;;6.50;4.20;;;;;;;20.33;74.66;100498.25;5068590;28;20227;-85
2021/06/29 01:05:47;;;;;;;12.93;5.20;;;;;;;20.33;74.44;100495.56;5068631;28;20238;-82
2021/06/29 01:08:15;;;;;;;6.53;5.10;;;;;;;20.33;74.68;100506.38;5076645;28;20203;-82
2021/06/29 01:10:42;;;;;;;12.90;5.20;;;;;;;20.32;74.71;100510.09;5070209;28;20228;-82
2021/06/29 01:13:08;;;;;;;8.23;5.10;;;;;;;20.32;74.93;100515.50;5074895;28;20202;-81
2021/06/29 01:15:35;;;;;;;6.07;4.70;;;;;;;20.31;74.81;100508.38;5065579;28;20679;-82
2021/06/29 01:18:02;;;;;;;11.30;4.80;;;;;;;20.31;75.19;100519.22;5069975;28;20232;-83
2021/06/29 01:20:32;;;;;;;8.07;4.40;;;;;;;20.31;74.69;100532.72;5075797;28;20672;-82
2021/06/29 01:23:02;;;;;;;6.50;3.87;;;;;;;20.29;74.28;100529.34;5070226;28;20684;-83
2021/06/29 01:25:30;;;;;;;3.77;3.17;;;;;;;20.27;74.35;100526.78;5080833;28;20300;-83
2021/06/29 01:28:07;;;;;;;3.27;2.97;;;;;;;20.23;73.90;100514.63;5074899;28;20206;-83
2021/06/29 01:33:20;;;;;;;3.40;2.50;;;;;;;20.20;72.69;100525.75;5071557;28;20276;-83
2021/06/29 01:35:48;;;;;;;4.60;2.73;;;;;;;20.22;72.38;100515.63;5077158;28;20231;-83
2021/06/29 01:38:21;;;;;;;3.73;3.20;;;;;;;20.25;71.83;100501.75;5083603;28;20228;-83
2021/06/29 01:40:49;;;;;;;3.00;2.70;;;;;;;20.29;71.65;100513.09;5071851;28;20231;-83
2021/06/29 01:43:20;;;;;;;3.03;2.80;;;;;;;20.32;71.29;100523.59;5075154;28;20298;-83
2021/06/29 01:45:49;;;;;;;3.43;3.13;;;;;;;20.36;71.25;100509.63;5075895;28;20215;-82
2021/06/29 01:48:21;;;;;;;3.63;3.30;;;;;;;20.40;71.23;100519.13;5077640;28;20194;-83
2021/06/29 01:50:49;;;;;;;3.80;3.40;;;;;;;20.45;70.79;100524.03;5086399;28;20227;-84
2021/06/29 01:53:15;;;;;;;3.80;3.47;;;;;;;20.49;71.44;100525.41;5093568;28;20202;-83
2021/06/29 01:55:42;;;;;;;4.93;3.90;;;;;;;20.51;71.54;100517.13;5092823;28;20744;-83
2021/06/29 01:58:09;;;;;;;3.83;3.43;;;;;;;20.53;71.46;100521.34;5072376;28;20230;-83
2021/06/29 02:00:35;;;;;;;4.17;3.87;;;;;;;20.56;71.81;100514.78;5080858;28;20234;-83
2021/06/29 02:03:02;;;;;;;5.07;3.93;;;;;;;20.58;71.63;100516.31;5077209;28;20228;-84
2021/06/29 02:05:29;;;;;;;5.33;4.30;;;;;;;20.60;71.88;100508.84;5077801;28;20713;-84
2021/06/29 02:07:56;;;;;;;4.80;4.17;;;;;;;20.64;71.89;100504.81;5083867;28;20235;-83
2021/06/29 02:10:23;;;;;;;4.07;3.67;;;;;;;20.66;71.87;100505.50;5081067;28;20229;-83
2021/06/29 02:12:50;;;;;;;4.73;4.23;;;;;;;20.69;72.23;100499.75;5085298;28;20221;-83
2021/06/29 02:15:18;;;;;;;4.27;3.87;;;;;;;20.71;72.09;100502.28;5072991;28;20659;-83
2021/06/29 02:17:45;;;;;;;4.50;4.10;;;;;;;20.73;72.49;100498.41;5092039;28;20214;-83
2021/06/29 02:20:13;;;;;;;6.67;4.53;;;;;;;20.75;72.72;100498.25;5085798;28;20223;-83
2021/06/29 02:22:40;;;;;;;4.60;4.20;;;;;;;20.78;72.82;100495.22;5069381;28;20239;-83
2021/06/29 02:25:09;;;;;;;5.57;4.37;;;;;;;20.79;73.16;100497.72;5077358;28;20202;-84
2021/06/29 02:27:36;;;;;;;4.83;4.33;;;;;;;20.83;73.69;100489.28;5071152;28;20212;-84
2021/06/29 02:30:03;;;;;;;5.43;4.93;;;;;;;20.81;73.96;100494.84;5077892;28;20221;-83
2021/06/29 02:32:30;;;;;;;5.40;4.83;;;;;;;20.78;74.30;100493.31;5076225;28;20213;-82
2021/06/29 02:34:57;;;;;;;5.17;4.53;;;;;;;20.76;74.16;100510.78;5076929;28;20206;-82
2021/06/29 02:37:23;;;;;;;5.00;4.60;;;;;;;20.72;74.61;100504.00;5084994;28;20218;-83
2021/06/29 02:39:50;;;;;;;4.63;4.23;;;;;;;20.69;74.97;100497.03;5085426;28;20235;-83
2021/06/29 02:42:18;;;;;;;4.97;4.57;;;;;;;20.68;75.55;100502.63;5080567;28;20214;-84
2021/06/29 02:44:45;;;;;;;4.90;4.33;;;;;;;20.65;75.77;100500.25;5070485;28;20208;-82
2021/06/29 02:47:12;;;;;;;5.80;4.70;;;;;;;20.61;76.06;100497.00;5076565;28;20994;-82
2021/06/29 02:49:38;;;;;;;4.93;4.43;;;;;;;20.57;76.03;100506.50;5082291;28;20300;-82
2021/06/29 02:52:06;;;;;;;4.50;4.10;;;;;;;20.54;76.48;100512.22;5091888;28;20205;-82
2021/06/29 02:54:32;;;;;;;6.03;4.40;;;;;;;20.48;76.51;100504.75;5077459;28;20299;-83
2021/06/29 02:56:59;;;;;;;6.13;4.13;;;;;;;20.44;76.80;100504.22;5075359;28;20214;-83
2021/06/29 02:59:27;;;;;;;4.87;4.40;;;;;;;20.42;76.88;100500.03;5074414;28;20236;-82
2021/06/29 03:01:54;;;;;;;4.80;4.40;;;;;;;20.39;77.13;100511.16;5080249;28;20198;-82
2021/06/29 03:04:20;;;;;;;5.10;4.37;;;;;;;20.35;77.17;100507.06;5076929;28;20210;-81
2021/06/29 03:06:47;;;;;;;6.77;4.60;;;;;;;20.32;77.44;100505.53;5073830;28;20213;-81
2021/06/29 03:09:13;;;;;;;7.97;5.10;;;;;;;20.29;77.58;100511.25;5079123;28;20326;-80
2021/06/29 03:11:41;;;;;;;7.07;4.87;;;;;;;20.26;78.10;100513.44;5075301;28;20214;-80
2021/06/29 03:14:07;;;;;;;4.93;4.20;;;;;;;20.21;78.08;100502.28;5079732;28;20572;-81
2021/06/29 03:16:36;;;;;;;4.83;4.30;;;;;;;20.17;78.22;100514.41;5081270;28;20287;-81
2021/06/29 03:19:02;;;;;;;4.63;3.90;;;;;;;20.14;78.35;100512.88;5078531;28;20219;-82
2021/06/29 03:21:29;;;;;;;4.93;4.27;;;;;;;20.09;78.30;100507.94;5082613;28;20579;-81
2021/06/29 03:23:55;;;;;;;5.13;3.90;;;;;;;20.06;78.63;100518.28;5079602;28;20283;-80
2021/06/29 03:26:22;;;;;;;4.53;4.03;;;;;;;20.04;78.77;100504.06;5091209;28;20214;-82
2021/06/29 03:28:49;;;;;;;4.07;3.67;;;;;;;20.02;78.88;100509.63;5079610;28;20203;-82
2021/06/29 03:31:16;;;;;;;5.93;4.20;;;;;;;20.01;78.94;100518.75;5078219;28;20593;-83
2021/06/29 03:33:43;;;;;;;4.53;4.07;;;;;;;20.02;79.03;100520.44;5082126;28;20215;-82
2021/06/29 03:36:11;;;;;;;5.13;3.80;;;;;;;20.01;79.14;100510.63;5068816;28;20681;-83
2021/06/29 03:38:38;;;;;;;3.90;3.63;;;;;;;19.99;78.94;100515.34;5076592;28;20278;-83
2021/06/29 03:41:04;;;;;;;4.57;3.97;;;;;;;19.99;78.83;100518.06;5074273;28;20230;-82
2021/06/29 03:43:34;;;;;;;4.00;3.70;;;;;;;19.98;79.17;100516.34;5072322;28;20215;-82
2021/06/29 03:46:02;;;;;;;4.57;3.73;;;;;;;19.99;79.19;100504.53;5071770;28;20252;-82
2021/06/29 03:48:29;;;;;;;4.70;4.13;;;;;;;19.98;79.04;100505.53;5077710;28;20633;-81
2021/06/29 03:50:57;;;;;;;4.33;3.93;;;;;;;19.98;79.09;100504.69;5077103;28;20231;-81
2021/06/29 03:53:23;;;;;;;4.47;4.07;;;;;;;19.98;79.47;100500.13;5077859;28;20209;-81
2021/06/29 03:55:50;;;;;;;4.60;4.20;;;;;;;19.98;79.32;100496.59;5074357;28;20218;-82
2021/06/29 03:58:17;;;;;;;4.33;3.93;;;;;;;19.97;79.28;100508.41;5074654;28;20209;-81
2021/06/29 04:00:43;;;;;;;5.30;4.23;;;;;;;19.95;79.43;100505.88;5080717;28;20261;-81
2021/06/29 04:03:10;;;;;;;4.63;3.60;;;;;;;19.95;79.52;100505.00;5068601;28;20207;-82
2021/06/29 04:05:36;;;;;;;4.80;4.10;;;;;;;19.95;79.63;100500.47;5070205;28;20275;-82
2021/06/29 04:08:04;;;;;;;5.40;4.13;;;;;;;19.95;79.71;100491.50;5078215;28;20203;-81
2021/06/29 04:10:31;;;;;;;4.20;3.83;;;;;;;19.96;79.80;100488.63;5070018;28;20248;-82
2021/06/29 04:12:58;;;;;;;7.67;3.97;;;;;;;19.96;79.81;100488.63;5072805;28;20604;-80
2021/06/29 04:15:25;;;;;;;4.50;4.10;;;;;;;19.99;79.83;100488.31;5069745;28;20587;-82
2021/06/29 04:17:51;;;;;;;5.73;4.47;;;;;;;20.02;80.01;100479.88;5074882;28;20233;-82
2021/06/29 04:20:18;;;;;;;7.87;4.93;;;;;;;20.05;80.13;100463.34;5072499;28;20642;-83
2021/06/29 04:22:44;;;;;;;5.10;4.20;;;;;;;20.06;80.06;100458.78;5077496;28;20199;-84
2021/06/29 04:25:13;;;;;;;6.23;4.57;;;;;;;20.07;80.19;100466.72;5083315;28;20729;-82
2021/06/29 04:27:40;;;;;;;7.43;4.93;;;;;;;20.09;80.41;100462.00;5074508;28;20198;-83
2021/06/29 04:30:08;;;;;;;7.77;4.97;;;;;;;20.11;80.47;100443.75;5075935;28;20310;-83
2021/06/29 04:32:35;;;;;;;5.63;5.13;;;;;;;20.15;80.69;100441.56;5079293;28;20310;-82
2021/06/29 04:35:01;;;;;;;4.60;4.20;;;;;;;20.17;80.71;100436.84;5078712;28;20207;-84
2021/06/29 04:37:37;;;;;;;5.50;4.67;;;;;;;20.19;80.75;100432.13;5079433;28;20217;-81
2021/06/29 04:40:04;;;;;;;6.27;5.67;;;;;;;20.21;80.89;100427.41;5072442;28;20227;-81
2021/06/29 04:42:32;;;;;;;5.13;4.30;;;;;;;20.20;80.67;100416.75;5077449;28;20223;-80
2021/06/29 04:44:59;;;;;;;6.70;4.87;;;;;;;20.19;80.64;100415.91;5081090;28;20206;-81
2021/06/29 04:47:25;;;;;;;5.20;4.80;;;;;;;20.19;80.81;100429.44;5068276;28;20569;-81
2021/06/29 04:49:55;;;;;;;4.80;4.40;;;;;;;20.19;80.84;100426.72;5066547;28;21754;-81
2021/06/29 04:52:22;;;;;;;4.73;4.43;;;;;;;20.17;80.76;100436.00;5073687;28;20659;-81
2021/06/29 04:54:48;;;;;;;4.50;4.20;;;;;;;20.14;80.91;100450.69;5077488;28;20214;-82
2021/06/29 04:57:15;;;;;;;4.67;4.27;;;;;;;20.13;81.01;100456.25;5075096;28;20203;-81
2021/06/29 04:59:42;;;;;;;4.60;4.20;;;;;;;20.09;81.02;100458.44;5081489;28;20240;-81
2021/06/29 05:02:09;;;;;;;5.30;4.80;;;;;;;20.05;80.94;100441.72;5068794;28;20205;-82
2021/06/29 05:04:35;;;;;;;5.13;4.33;;;;;;;20.03;80.96;100427.50;5062321;28;20219;-82
2021/06/29 05:07:02;;;;;;;5.40;4.13;;;;;;;20.01;80.84;100415.16;5065332;28;20578;-82
2021/06/29 05:09:28;;;;;;;4.60;4.20;;;;;;;19.98;81.00;100413.63;5079106;28;20219;-82
2021/06/29 05:11:55;;;;;;;4.50;4.10;;;;;;;19.97;81.30;100401.13;5066669;28;20705;-82
2021/06/29 05:14:22;;;;;;;4.23;3.50;;;;;;;19.97;81.03;100393.03;5074326;28;20209;-83
2021/06/29 05:16:52;;;;;;;4.03;3.67;;;;;;;19.97;80.93;100389.47;5063884;28;20695;-82
2021/06/29 05:19:19;;;;;;;3.57;3.37;;;;;;;19.95;80.97;100384.22;5074097;28;20572;-82
2021/06/29 05:21:45;;;;;;;4.67;3.93;;;;;;;19.94;81.18;100378.97;5082169;28;20202;-83
2021/06/29 05:24:12;;;;;;;5.30;4.10;;;;;;;19.94;81.27;100382.53;5072172;28;20209;-82
2021/06/29 05:26:38;;;;;;;3.73;3.53;;;;;;;19.96;81.28;100382.38;5069253;28;20211;-83
2021/06/29 05:29:05;;;;;;;4.27;3.83;;;;;;;19.98;81.41;100380.34;5077922;28;20227;-82
2021/06/29 05:31:32;;;;;;;4.87;3.80;;;;;;;19.98;81.16;100381.19;5078262;28;20210;-82
2021/06/29 05:34:00;;;;;;;4.27;3.97;;;;;;;19.99;81.20;100385.59;5075672;28;20200;-82
2021/06/29 05:36:27;;;;;;;4.20;3.80;;;;;;;20.01;81.20;100396.25;5073001;28;20215;-80
2021/06/29 05:38:53;;;;;;;4.73;4.17;;;;;;;20.02;81.23;100400.66;5073222;28;20298;-82
2021/06/29 05:41:20;;;;;;;6.47;3.97;;;;;;;20.02;81.06;100403.34;5076612;28;20206;-82
2021/06/29 05:43:46;;;;;;;3.73;3.43;;;;;;;20.03;80.93;100400.47;5067323;28;20220;-80
2021/06/29 05:46:14;;;;;;;4.00;3.70;;;;;;;20.03;81.00;100400.47;5060281;28;20204;-82
2021/06/29 05:48:40;;;;;;;4.77;3.67;;;;;;;20.03;81.14;100399.63;5061861;28;20629;-82
2021/06/29 05:51:08;;;;;;;4.27;3.87;;;;;;;20.05;81.36;100397.63;5075642;28;20200;-81
2021/06/29 05:53:35;;;;;;;5.73;4.00;;;;;;;20.06;81.27;100399.31;5059363;28;20220;-80
2021/06/29 05:56:01;;;;;;;4.23;3.87;;;;;;;20.07;81.16;100400.97;5055641;28;20220;-81
2021/06/29 05:58:28;;;;;;;5.50;4.23;;;;;;;20.10;81.32;100406.06;5067033;28;20205;-82
2021/06/29 06:00:55;;;;;;;4.87;4.10;;;;;;;20.13;81.62;100421.13;5063478;28;20685;-82
2021/06/29 06:03:21;;;;;;;5.53;4.70;;;;;;;20.14;81.54;100409.28;5063059;28;20208;-80
2021/06/29 06:05:48;;;;;;;6.60;5.27;;;;;;;20.16;81.69;100409.97;5072013;28;20202;-80
2021/06/29 06:08:16;;;;;;;6.70;6.00;;;;;;;20.19;81.85;100407.78;5068309;28;20213;-81
2021/06/29 06:10:42;;;;;;;6.30;5.70;;;;;;;20.21;81.84;100410.34;5070906;28;20224;-80
2021/06/29 06:13:09;;;;;;;7.23;6.03;;;;;;;20.22;81.99;100399.34;5070843;28;20229;-80
2021/06/29 06:15:35;;;;;;;7.77;7.00;;;;;;;20.26;82.13;100405.25;5067583;28;20699;-80
2021/06/29 06:18:04;;;;;;;8.87;6.73;;;;;;;20.29;82.29;100410.34;5074060;28;20202;-81
2021/06/29 06:20:31;;;;;;;7.10;6.40;;;;;;;20.31;82.42;100411.03;5074503;28;20234;-81
2021/06/29 06:22:58;;;;;;;7.50;6.70;;;;;;;20.32;82.45;100418.97;5072801;28;20197;-82
2021/06/29 06:25:26;;;;;;;7.67;6.90;;;;;;;20.37;82.88;100422.06;5072437;28;20217;-83
2021/06/29 06:27:52;;;;;;;8.47;7.50;;;;;;;20.42;82.92;100435.91;5077612;28;20298;-82
2021/06/29 06:30:19;;;;;;;7.07;6.47;;;;;;;20.47;83.12;100432.72;5086799;28;20223;-81
2021/06/29 06:32:46;;;;;;;8.20;7.50;;;;;;;20.51;83.21;100430.53;5071534;28;20575;-82
2021/06/29 06:35:13;;;;;;;8.40;7.60;;;;;;;20.53;83.04;100440.19;5083894;28;20206;-82
2021/06/29 06:37:39;;;;;;;6.30;5.77;;;;;;;20.53;82.87;100440.19;5082187;28;20248;-82
2021/06/29 06:40:07;;;;;;;5.97;5.33;;;;;;;20.52;83.10;100433.09;5075019;28;20226;-82
2021/06/29 06:42:35;;;;;;;6.57;5.97;;;;;;;20.50;82.85;100427.00;5075659;28;20207;-81
2021/06/29 06:45:02;;;;;;;5.13;4.60;;;;;;;20.52;82.99;100422.25;5066145;28;20215;-81
2021/06/29 06:47:28;;;;;;;5.07;4.53;;;;;;;20.51;82.68;100414.31;5067407;28;20209;-81
2021/06/29 06:49:55;;;;;;;5.13;4.53;;;;;;;20.53;82.76;100423.97;5074329;28;20592;-81
2021/06/29 06:52:23;;;;;;;6.43;4.73;;;;;;;20.56;82.73;100411.97;5073267;28;20213;-81
2021/06/29 06:54:50;;;;;;;6.80;4.67;;;;;;;20.59;82.59;100406.22;5073164;28;20216;-80
2021/06/29 06:57:16;;;;;;;4.20;3.90;;;;;;;20.63;82.29;100408.41;5068656;28;20250;-80
2021/06/29 06:59:44;;;;;;;4.70;4.30;;;;;;;20.69;82.11;100406.88;5070193;28;20253;-81
2021/06/29 07:02:11;;;;;;;4.30;3.90;;;;;;;20.74;82.05;100402.69;5071506;28;20209;-81
2021/06/29 07:04:37;;;;;;;4.70;4.30;;;;;;;20.78;81.71;100406.72;5068679;28;20214;-81
2021/06/29 07:07:05;;;;;;;4.40;4.00;;;;;;;20.85;81.62;100415.00;5070138;28;20203;-81
2021/06/29 07:09:32;;;;;;;4.40;4.03;;;;;;;20.87;81.15;100421.09;5067211;28;20584;-81
2021/06/29 07:12:00;;;;;;;4.63;3.90;;;;;;;20.91;81.04;100427.88;5067892;28;20329;-81
2021/06/29 07:14:26;;;;;;;4.10;3.70;;;;;;;20.91;80.58;100427.03;5072099;28;20279;-81
2021/06/29 07:16:54;;;;;;;4.13;3.83;;;;;;;20.92;80.47;100429.56;5075464;28;20213;-81
2021/06/29 07:19:20;;;;;;;7.47;4.03;;;;;;;20.95;80.36;100426.53;5078178;28;20223;-81
2021/06/29 07:21:47;;;;;;;4.33;4.00;;;;;;;20.99;80.37;100424.31;5072369;28;20220;-82
2021/06/29 07:24:14;;;;;;;5.10;4.60;;;;;;;21.05;80.82;100416.38;5064199;28;20203;-82
2021/06/29 07:26:40;;;;;;;4.10;3.77;;;;;;;21.12;80.40;100428.22;5066059;28;20208;-82
2021/06/29 07:29:07;;;;;;;4.57;4.17;;;;;;;21.13;80.33;100431.78;5071121;28;20230;-82
2021/06/29 07:31:34;;;;;;;4.27;3.97;;;;;;;21.13;79.86;100432.63;5063966;28;20206;-81
2021/06/29 07:34:02;;;;;;;6.33;4.27;;;;;;;21.13;79.91;100429.06;5073795;28;20205;-81
2021/06/29 07:36:28;;;;;;;4.57;4.17;;;;;;;21.12;79.68;100425.50;5071813;28;20210;-81
2021/06/29 07:38:56;;;;;;;5.23;3.83;;;;;;;21.13;79.79;100423.66;5071456;28;20203;-81
2021/06/29 07:41:23;;;;;;;4.73;4.27;;;;;;;21.13;79.58;100420.94;5075811;28;20292;-82
2021/06/29 07:43:50;;;;;;;4.63;4.23;;;;;;;21.13;79.49;100423.66;5070915;28;20221;-82
2021/06/29 07:46:16;;;;;;;4.40;4.00;;;;;;;21.11;79.73;100423.81;5075568;28;20728;-82
2021/06/29 07:48:43;;;;;;;5.13;4.50;;;;;;;21.12;79.84;100424.66;5069773;28;20220;-82
2021/06/29 07:51:11;;;;;;;5.97;4.50;;;;;;;21.13;79.82;100423.66;5074198;28;20683;-82
2021/06/29 07:53:38;;;;;;;4.80;4.50;;;;;;;21.13;79.85;100434.47;5066898;28;20385;-82
2021/06/29 07:56:05;;;;;;;5.30;4.63;;;;;;;21.10;79.73;100438.38;5071202;28;20213;-82
2021/06/29 07:58:32;;;;;;;5.37;4.53;;;;;;;21.06;79.96;100434.31;5075793;28;20298;-82
2021/06/29 08:00:58;;;;;;;5.87;4.40;;;;;;;21.03;80.03;100433.78;5076321;28;20246;-82
2021/06/29 08:03:25;;;;;;;4.33;3.93;;;;;;;21.00;80.07;100434.13;5076030;28;20209;-82
2021/06/29 08:05:51;;;;;;;4.60;4.30;;;;;;;20.96;80.15;100435.50;5073347;28;20204;-82
2021/06/29 08:08:19;;;;;;;4.40;4.00;;;;;;;20.94;80.06;100427.56;5077542;28;20204;-82
2021/06/29 08:10:46;;;;;;;5.17;4.40;;;;;;;20.92;80.14;100421.44;5074955;28;20223;-81
2021/06/29 08:13:12;;;;;;;4.93;4.50;;;;;;;20.89;80.32;100420.94;5076474;28;20195;-82
2021/06/29 08:15:39;;;;;;;4.60;4.27;;;;;;;20.89;80.30;100426.34;5078265;28;20206;-80
2021/06/29 08:18:06;;;;;;;5.47;3.90;;;;;;;20.89;80.64;100424.50;5073610;28;20206;-81
2021/06/29 08:20:33;;;;;;;5.00;4.37;;;;;;;20.92;80.83;100424.16;5075403;28;20237;-81
2021/06/29 08:22:59;;;;;;;9.30;4.60;;;;;;;20.95;80.85;100420.28;5070780;28;20210;-81
2021/06/29 08:25:28;;;;;;;4.67;4.27;;;;;;;21.01;81.52;100417.72;5076722;28;20585;-83
2021/06/29 08:27:55;;;;;;;4.30;3.93;;;;;;;21.08;81.41;100428.72;5075885;28;20247;-83
2021/06/29 08:30:23;;;;;;;4.63;3.97;;;;;;;21.11;81.38;100423.81;5074074;28;20226;-82
2021/06/29 08:32:49;;;;;;;3.90;3.60;;;;;;;21.14;81.22;100430.72;5069613;28;20216;-82
2021/06/29 08:35:16;;;;;;;4.37;4.07;;;;;;;21.18;81.25;100431.25;5070510;28;20208;-83
2021/06/29 08:37:43;;;;;;;4.10;3.80;;;;;;;21.22;81.17;100429.91;5071407;28;20212;-84
2021/06/29 08:40:13;;;;;;;4.40;3.40;;;;;;;21.27;81.05;100424.84;5072514;28;20218;-83
2021/06/29 08:42:41;;;;;;;4.40;3.77;;;;;;;21.30;80.66;100429.91;5074039;28;20212;-83
2021/06/29 08:45:10;;;;;;;3.87;3.57;;;;;;;21.36;80.88;100424.63;5073721;28;20206;-83
2021/06/29 08:47:38;;;;;;;3.70;3.17;;;;;;;21.44;80.42;100423.78;5071582;28;20241;-83
2021/06/29 08:50:07;;;;;;;4.20;3.57;;;;;;;21.50;80.12;100422.28;5070526;28;20571;-83
2021/06/29 08:52:33;;;;;;;5.63;3.20;;;;;;;21.54;79.87;100419.00;5069052;28;20212;-84
2021/06/29 08:55:00;;;;;;;6.30;3.30;;;;;;;21.58;79.38;100416.81;5070087;28;20345;-83
2021/06/29 08:57:27;;;;;;;6.37;3.40;;;;;;;21.63;79.04;100414.44;5067024;28;20240;-83
2021/06/29 08:59:58;;;;;;;3.53;3.20;;;;;;;21.68;78.75;100414.72;5061047;28;20226;-83
2021/06/29 09:02:25;;;;;;;3.53;3.23;;;;;;;21.74;78.09;100411.34;5068483;28;20207;-83
2021/06/29 09:04:55;;;;;;;3.87;3.27;;;;;;;21.78;77.92;100415.41;5072973;28;20617;-83
2021/06/29 09:07:24;;;;;;;3.37;2.83;;;;;;;21.82;77.26;100417.59;5073721;28;20721;-82
2021/06/29 09:09:54;;;;;;;3.07;2.77;;;;;;;21.86;76.90;100417.22;5069671;28;20596;-82
2021/06/29 09:12:45;;;;;;;3.00;2.73;;;;;;;21.89;76.63;100416.88;5074250;28;20281;-82
2021/06/29 09:15:32;;;;;;;3.87;3.03;;;;;;;21.91;76.29;100415.66;5072678;28;20208;-81
2021/06/29 09:18:09;;;;;;;2.83;2.20;;;;;;;21.96;76.03;100415.16;5071952;28;20231;-82
2021/06/29 09:20:38;;;;;;;2.50;2.30;;;;;;;21.97;75.48;100414.97;5071659;28;20246;-83
2021/06/29 09:23:10;;;;;;;3.10;2.30;;;;;;;22.00;75.03;100413.81;5072868;28;20290;-82
2021/06/29 09:25:36;;;;;;;2.60;1.80;;;;;;;22.01;74.72;100410.09;5067915;28;20231;-82
2021/06/29 09:28:03;;;;;;;4.75;1.90;;;;;;;22.05;74.43;100398.69;5071325;28;20204;-82
2021/06/29 09:30:40;;;;;;;3.20;2.03;;;;;;;22.10;74.08;100404.44;5074901;28;20690;-81
2021/06/29 09:33:09;;;;;;;2.28;1.85;;;;;;;22.16;73.76;100403.72;5074125;28;20260;-82
2021/06/29 09:35:37;;;;;;;3.85;1.92;;;;;;;22.22;73.34;100399.44;5074953;28;20287;-82
2021/06/29 09:38:04;;;;;;;2.22;2.03;;;;;;;22.26;72.58;100398.06;5068186;28;20208;-82
2021/06/29 09:40:33;;;;;;;1.98;1.77;;;;;;;22.32;72.22;100402.78;5072228;28;20323;-82
2021/06/29 09:43:11;;;;;;;2.05;1.60;;;;;;;22.37;72.31;100394.97;5073376;28;20201;-82
2021/06/29 09:45:44;;;;;;;2.65;1.70;;;;;;;22.44;71.95;100408.63;5070473;28;20208;-81
2021/06/29 09:48:10;;;;;;;2.08;1.80;;;;;;;22.45;71.61;100400.31;5077658;28;20203;-82
2021/06/29 09:50:39;;;;;;;1.55;1.45;;;;;;;22.48;70.79;100397.25;5072973;28;20239;-81
2021/06/29 09:53:18;;;;;;;1.58;1.45;;;;;;;22.47;70.45;100389.28;5075531;28;20243;-82
2021/06/29 09:55:49;;;;;;;1.80;1.70;;;;;;;22.49;69.92;100381.81;5075344;28;20279;-82
2021/06/29 09:58:18;;;;;;;1.80;1.50;;;;;;;22.56;69.83;100382.78;5075374;28;20207;-82
2021/06/29 10:00:48;;;;;;;3.08;1.40;;;;;;;22.63;69.39;100381.03;5077587;28;20319;-82
2021/06/29 10:03:24;;;;;;;2.42;1.77;;;;;;;22.69;69.01;100383.00;5076544;28;20207;-81
2021/06/29 10:05:52;;;;;;;2.78;1.40;;;;;;;22.73;68.60;100378.91;5071408;28;20285;-82
2021/06/29 10:08:32;;;;;;;1.67;1.33;;;;;;;22.83;68.63;100376.81;5072094;28;20200;-82
2021/06/29 10:11:08;;;;;;;1.55;1.40;;;;;;;22.95;68.46;100381.78;5069467;28;20226;-82
2021/06/29 10:13:37;;;;;;;1.75;1.30;;;;;;;23.02;67.90;100382.75;5073806;28;20200;-82
2021/06/29 10:16:08;;;;;;;1.75;1.65;;;;;;;23.04;67.58;100375.28;5077105;28;20205;-82
2021/06/29 10:18:38;;;;;;;2.63;1.63;;;;;;;23.08;67.21;100371.16;5075210;28;20204;-81
2021/06/29 10:21:15;;;;;;;1.98;1.55;;;;;;;23.16;67.28;100379.22;5075107;28;20609;-83
2021/06/29 10:23:42;;;;;;;2.85;1.83;;;;;;;23.25;67.22;100374.56;5074737;28;20202;-82
2021/06/29 10:26:09;;;;;;;2.35;1.73;;;;;;;23.32;67.52;100368.19;5077629;28;20264;-82
2021/06/29 10:28:36;;;;;;;3.80;2.20;;;;;;;23.41;67.62;100371.66;5076908;28;20214;-82
2021/06/29 10:31:03;;;;;;;1.90;1.70;;;;;;;23.51;67.53;100367.66;5070107;28;20228;-81
2021/06/29 10:33:32;;;;;;;1.60;1.50;;;;;;;23.58;67.15;100362.31;5074284;28;20209;-80
2021/06/29 10:36:00;;;;;;;4.78;1.90;;;;;;;23.66;67.02;100362.22;5076362;28;20196;-81
2021/06/29 10:38:27;;;;;;;2.10;1.88;;;;;;;23.75;66.82;100362.97;5075140;28;20218;-82
2021/06/29 10:40:56;;;;;;;2.15;1.73;;;;;;;23.80;65.83;100363.25;5074298;28;20241;-82
2021/06/29 10:43:23;;;;;;;3.50;1.80;;;;;;;23.81;65.77;100365.78;5076096;28;20590;-81
2021/06/29 10:45:52;;;;;;;2.67;1.90;;;;;;;23.82;65.18;100355.75;5079595;28;20209;-83
2021/06/29 10:48:21;;;;;;;2.30;1.90;;;;;;;23.81;64.99;100352.19;5072518;28;20228;-83
2021/06/29 10:50:50;;;;;;;3.22;2.00;;;;;;;23.86;65.31;100343.44;5074310;28;20224;-82
2021/06/29 10:53:35;;;;;;;2.72;1.73;;;;;;;23.92;65.23;100350.84;5079835;28;20296;-82
2021/06/29 10:56:04;;;;;;;2.95;1.90;;;;;;;23.98;65.57;100341.09;5077577;28;20209;-83
2021/06/29 10:58:40;;;;;;;3.65;2.20;;;;;;;24.04;65.40;100341.13;5079848;28;20646;-82
2021/06/29 11:01:31;;;;;;;2.17;2.08;;;;;;;24.10;65.32;100340.38;5076353;28;20287;-82
2021/06/29 11:04:00;;;;;;;2.35;1.65;;;;;;;24.17;64.81;100340.47;5071532;28;20196;-83
2021/06/29 11:06:43;;;;;;;2.35;1.90;;;;;;;24.22;64.27;100344.28;5072372;28;20254;-82
2021/06/29 11:09:15;;;;;;;3.22;1.50;;;;;;;24.30;64.33;100343.34;5077592;28;20283;-82
2021/06/29 11:11:42;;;;;;;1.50;1.40;;;;;;;24.34;63.36;100335.66;5075832;28;20201;-82
2021/06/29 11:14:28;;;;;;;1.60;1.50;;;;;;;24.37;62.50;100337.97;5072439;28;20296;-83
2021/06/29 11:16:57;;;;;;;1.83;1.50;;;;;;;24.44;62.54;100341.59;5070096;28;20200;-82
2021/06/29 11:20:06;;;;;;;1.58;1.25;;;;;;;24.54;61.54;100334.78;5066279;28;20588;-82
2021/06/29 11:22:58;;;;;;;2.88;1.60;;;;;;;24.62;61.75;100332.97;5067504;28;20709;-81
2021/06/29 11:25:36;;;;;;;1.63;1.52;;;;;;;24.70;61.42;100330.97;5077182;28;20809;-80
2021/06/29 11:28:06;;;;;;;1.60;1.50;;;;;;;24.77;60.22;100331.00;5066213;28;21535;-81
2021/06/29 11:31:02;;;;;;;2.40;1.58;;;;;;;24.81;59.81;100329.56;5071784;28;20248;-81
2021/06/29 11:33:49;;;;;;;1.83;1.67;;;;;;;24.91;59.69;100322.75;5067160;28;20559;-81